createdAt,value
2019-03-10T16:59:58.187Z,72.8
2019-03-10T17:00:28.399Z,72.8
2019-03-10T17:02:55.185Z,72.4
2019-03-10T17:03:54.396Z,72.5
2019-03-10T17:53:11.579Z,52.1
2019-03-10T17:53:42.445Z,52.1
2019-03-10T17:54:12.475Z,52.1
2019-03-10T17:56:08.753Z,50.9
2019-03-10T17:57:08.061Z,50.4
2019-03-10T17:58:07.176Z,51.1
2019-03-10T18:04:01.908Z,49.9
2019-03-10T18:07:58.793Z,48.3
2019-03-10T18:12:54.445Z,49
2019-03-10T18:13:25.149Z,49
2019-03-10T18:20:47.656Z,50.5
2019-03-10T18:21:18.281Z,50.5
2019-03-10T18:23:44.757Z,49.8
2019-03-10T18:27:41.812Z,50.9
2019-03-10T18:29:40.016Z,48.3
2019-03-10T18:32:37.200Z,47.2
2019-03-10T18:33:07.722Z,47.2
2019-03-10T18:38:32.060Z,49.2
2019-03-10T18:42:28.634Z,48.6
2019-03-10T18:42:58.865Z,48.6
2019-03-10T18:47:24.514Z,49.6
2019-03-10T18:48:23.321Z,48.5
2019-03-10T19:19:56.112Z,52.5
2019-03-10T19:22:53.078Z,52.5
2019-03-10T19:28:48.285Z,52.2
2019-03-10T19:29:18.900Z,52.2
2019-03-10T19:49:29.764Z,53.4
2019-03-10T19:50:00.311Z,53.4
2019-03-10T19:52:27.103Z,53.7
2019-03-10T19:57:22.753Z,56.6
2019-03-10T19:57:52.899Z,56.6
2019-03-10T19:59:20.836Z,57.5
2019-03-10T19:59:51.362Z,57.5
2019-03-10T20:00:22.111Z,58.1
2019-03-10T20:00:52.412Z,58.1
2019-03-10T20:02:18.244Z,66.4
2019-03-10T20:07:13.534Z,83.6
2019-03-10T20:07:43.813Z,83.6
2019-03-10T20:11:10.223Z,85.5
2019-03-10T20:11:40.757Z,85.5
2019-03-10T20:13:08.244Z,87.4
2019-03-10T20:16:05.829Z,88.3
2019-03-10T20:17:04.573Z,88.5
2019-03-10T20:18:03.857Z,88.4
2019-03-10T20:18:34.108Z,88.4
2019-03-10T20:20:01.997Z,89.1
2019-03-10T20:20:32.567Z,89.1
2019-03-10T20:21:03.193Z,89.3
2019-03-10T20:21:33.790Z,89.3
2019-03-10T20:23:01.496Z,90.1
2019-03-10T20:23:57.993Z,90.5
2019-03-10T20:25:56.225Z,90.2
2019-03-10T20:27:54.419Z,90.2
2019-03-10T20:34:47.650Z,90.1
2019-03-10T20:35:46.575Z,89.8
2019-03-10T20:37:44.790Z,90.2
2019-03-10T20:39:42.583Z,91.2
2019-03-10T20:40:12.707Z,91.2
2019-03-10T20:40:43.345Z,91.5
2019-03-10T20:41:13.461Z,91.5
2019-03-10T20:42:40.014Z,91
2019-03-10T20:43:38.845Z,91
2019-03-10T20:44:37.729Z,90.8
2019-03-10T20:45:36.941Z,90.8
2019-03-10T20:49:32.896Z,91.3
2019-03-10T20:50:03.122Z,91.3
2019-03-10T20:50:33.331Z,90.8
2019-03-10T20:51:05.605Z,90.8
2019-03-10T20:52:30.117Z,90.7
2019-03-10T20:54:28.306Z,90.9
2019-03-10T20:55:27.111Z,90.8
2019-03-10T20:56:25.952Z,91
2019-03-10T21:01:21.755Z,90.9
2019-03-10T21:02:20.177Z,91
2019-03-10T21:03:19.399Z,90.9
2019-03-10T21:06:16.533Z,90.8
2019-03-10T21:08:14.037Z,90.8
2019-03-10T21:09:13.147Z,90.4
2019-03-10T21:10:12.459Z,89.8
2019-03-10T21:10:42.681Z,89.8
2019-03-10T21:13:09.469Z,89.8
2019-03-10T21:14:08.577Z,89.9
2019-03-10T21:17:05.289Z,89.8
2019-03-10T21:20:02.577Z,89.2
2019-03-10T21:21:01.408Z,89.5
2019-03-10T21:22:00.650Z,89.9
2019-03-10T21:22:59.558Z,89.5
2019-03-10T21:28:53.823Z,88.1
2019-03-10T21:29:52.575Z,88.3
2019-03-10T21:30:51.286Z,88.7
2019-03-10T21:32:49.510Z,87.6
2019-03-10T21:33:48.778Z,87.5
2019-03-10T21:34:47.591Z,87.8
2019-03-10T21:35:18.696Z,87.8
2019-03-10T21:35:48.735Z,88
2019-03-10T21:36:19.374Z,88
2019-03-10T21:37:44.793Z,88
2019-03-10T21:38:43.504Z,87.9
2019-03-10T21:39:42.848Z,87.8
2019-03-10T21:40:41.677Z,88.1
2019-03-10T21:41:40.897Z,88.1
2019-03-10T21:42:39.598Z,87.5
2019-03-10T21:45:36.808Z,86.5
2019-03-10T21:46:08.031Z,86.5
2019-03-10T21:47:34.831Z,86.7
2019-03-10T21:49:32.937Z,86.3
2019-03-10T21:50:31.658Z,85.8
2019-03-10T21:51:30.903Z,85.9
2019-03-10T21:53:29.130Z,85.7
2019-03-10T21:54:27.860Z,85.2
2019-03-10T21:54:58.307Z,85.2
2019-03-10T21:56:26.201Z,85.6
2019-03-10T21:56:56.827Z,85.6
2019-03-10T21:58:23.825Z,85.3
2019-03-10T21:59:23.158Z,85.7
2019-03-10T22:00:22.108Z,85
2019-03-10T22:01:20.932Z,85.1
2019-03-10T22:03:18.932Z,85.1
2019-03-10T22:04:18.143Z,85.4
2019-03-10T22:04:48.675Z,85.4
2019-03-10T22:05:19.305Z,85.2
2019-03-10T22:05:49.500Z,85.2
2019-03-10T22:06:20.130Z,85.3
2019-03-10T22:06:50.758Z,85.3
2019-03-10T22:07:21.384Z,84.8
2019-03-10T22:07:51.908Z,84.8
2019-03-10T22:09:12.954Z,85
2019-03-10T22:10:12.369Z,84.9
2019-03-10T22:11:11.176Z,84.5
2019-03-10T22:12:09.987Z,84.6
2019-03-10T22:13:09.205Z,84.2
2019-03-10T22:14:08.048Z,84.3
2019-03-10T22:14:38.180Z,84.3
2019-03-10T22:15:08.903Z,84
2019-03-10T22:15:42.365Z,84
2019-03-10T22:16:09.562Z,83.8
2019-03-10T22:16:40.091Z,83.8
2019-03-10T22:17:10.735Z,83.7
2019-03-10T22:17:41.354Z,83.7
2019-03-10T22:19:03.316Z,83.7
2019-03-10T22:20:02.127Z,84
2019-03-10T22:21:01.339Z,83.7
2019-03-10T22:22:00.457Z,83.9
2019-03-10T22:22:59.088Z,83.4
2019-03-10T22:23:59.959Z,83.6
2019-03-10T22:24:28.825Z,83.6
2019-03-10T22:24:59.592Z,83.5
2019-03-10T22:25:30.153Z,83.5
2019-03-10T22:26:00.375Z,83.4
2019-03-10T22:26:30.902Z,83.4
2019-03-10T22:27:01.526Z,83.2
2019-03-10T22:27:32.048Z,83.2
2019-03-10T22:28:02.577Z,83.3
2019-03-10T22:28:33.269Z,83.3
2019-03-10T22:29:52.203Z,83.1
2019-03-10T22:30:51.542Z,83.1
2019-03-10T22:31:50.672Z,82.9
2019-03-10T22:32:49.490Z,82.9
2019-03-10T22:33:48.312Z,82.4
2019-03-10T22:34:18.839Z,82.4
2019-03-10T22:34:49.360Z,82.2
2019-03-10T22:35:19.573Z,82.2
2019-03-10T22:35:49.812Z,82.2
2019-03-10T22:36:20.452Z,82.2
2019-03-10T22:36:50.879Z,82.1
2019-03-10T22:37:21.423Z,82.1
2019-03-10T22:37:52.039Z,82
2019-03-10T22:38:22.464Z,82
2019-03-10T22:39:42.716Z,81.9
2019-03-10T22:40:41.421Z,82.2
2019-03-10T22:41:40.532Z,82
2019-03-10T22:42:39.442Z,82.3
2019-03-10T22:43:38.582Z,82.1
2019-03-10T22:44:37.481Z,82.1
2019-03-10T22:45:07.812Z,82.1
2019-03-10T22:45:38.342Z,82.3
2019-03-10T22:46:09.005Z,82.3
2019-03-10T22:46:39.539Z,82.5
2019-03-10T22:47:09.758Z,82.5
2019-03-10T22:47:40.379Z,82.3
2019-03-10T22:48:10.903Z,82.3
2019-03-10T22:49:32.853Z,82.3
2019-03-10T22:50:31.552Z,81.8
2019-03-10T22:51:30.955Z,82.4
2019-03-10T22:52:29.763Z,81.9
2019-03-10T22:53:28.684Z,81.9
2019-03-10T22:54:27.982Z,81.9
2019-03-10T22:54:58.501Z,81.9
2019-03-10T22:55:29.021Z,82
2019-03-10T22:55:59.130Z,82
2019-03-10T22:56:29.745Z,81.3
2019-03-10T22:56:59.973Z,81.3
2019-03-10T22:57:30.201Z,81.5
2019-03-10T22:58:00.419Z,81.5
2019-03-10T22:59:22.979Z,81.4
2019-03-10T23:00:21.679Z,80.8
2019-03-10T23:01:21.013Z,81
2019-03-10T23:02:19.817Z,81.2
2019-03-10T23:03:19.231Z,81
2019-03-10T23:04:18.030Z,80.5
2019-03-10T23:05:16.968Z,80.7
2019-03-10T23:05:47.499Z,80.7
2019-03-10T23:06:18.179Z,80.8
2019-03-10T23:06:48.292Z,80.8
2019-03-10T23:08:14.286Z,80.3
2019-03-10T23:09:13.185Z,80.1
2019-03-10T23:10:12.025Z,80.2
2019-03-10T23:11:11.252Z,80.4
2019-03-10T23:12:10.081Z,79.8
2019-03-10T23:13:08.916Z,79.7
2019-03-10T23:14:08.123Z,79.7
2019-03-10T23:15:07.423Z,79.8
2019-03-10T23:15:37.638Z,79.8
2019-03-10T23:16:07.863Z,79.3
2019-03-10T23:16:38.499Z,79.3
2019-03-10T23:18:04.186Z,78.6
2019-03-10T23:19:03.090Z,79
2019-03-10T23:20:02.403Z,78.7
2019-03-10T23:21:01.322Z,79.1
2019-03-10T23:22:00.428Z,79.2
2019-03-10T23:22:59.233Z,79.4
2019-03-10T23:23:58.543Z,79.3
2019-03-10T23:24:57.342Z,79.1
2019-03-10T23:25:56.458Z,79.4
2019-03-10T23:26:26.669Z,79.4
2019-03-10T23:27:54.159Z,80.3
2019-03-10T23:28:53.571Z,79.8
2019-03-10T23:29:52.470Z,80.3
2019-03-10T23:30:51.679Z,80.3
2019-03-10T23:31:50.298Z,80.5
2019-03-10T23:32:49.601Z,80.7
2019-03-10T23:33:48.505Z,81.2
2019-03-10T23:34:47.306Z,81.3
2019-03-10T23:35:46.644Z,81.2
2019-03-10T23:36:45.464Z,81.7
2019-03-10T23:37:44.364Z,81.8
2019-03-10T23:38:43.482Z,82.1
2019-03-10T23:39:42.686Z,82.4
2019-03-10T23:40:41.489Z,82.7
2019-03-10T23:41:40.788Z,82.7
2019-03-10T23:42:11.321Z,82.7
2019-03-10T23:42:41.849Z,83
2019-03-10T23:43:38.468Z,83.1
2019-03-10T23:44:37.797Z,83.4
2019-03-10T23:45:36.697Z,83.5
2019-03-10T23:46:35.517Z,83.6
2019-03-10T23:47:35.584Z,83.7
2019-03-10T23:48:33.982Z,83.9
2019-03-10T23:50:31.708Z,84.3
2019-03-10T23:51:30.687Z,84
2019-03-10T23:52:01.308Z,84
2019-03-10T23:52:31.741Z,84.2
2019-03-10T23:53:02.167Z,84.2
2019-03-10T23:53:32.703Z,84
2019-03-10T23:54:27.901Z,84.2
2019-03-10T23:55:27.112Z,84.2
2019-03-10T23:56:25.819Z,84.6
2019-03-10T23:57:24.715Z,84.8
2019-03-10T23:58:23.930Z,84.6
2019-03-10T23:59:22.738Z,84.8
